createdAt,value
2017-07-03T00:00:12.227Z,86.00
2017-07-03T00:02:41.213Z,85.90
2017-07-03T00:05:09.416Z,85.80
2017-07-03T00:07:37.698Z,85.90
2017-07-03T00:10:06.809Z,86.90
2017-07-03T00:12:35.011Z,87.50
2017-07-03T00:15:03.344Z,87.10
2017-07-03T00:17:32.316Z,87.10
2017-07-03T00:20:00.523Z,87.10
2017-07-03T00:22:28.742Z,86.70
2017-07-03T00:24:57.075Z,86.80
2017-07-03T00:27:26.047Z,86.70
2017-07-03T00:29:54.263Z,86.60
2017-07-03T00:32:22.503Z,86.70
2017-07-03T00:34:50.720Z,86.70
2017-07-03T00:37:19.093Z,86.30
2017-07-03T00:39:47.385Z,85.80
2017-07-03T00:42:15.586Z,85.70
2017-07-03T00:44:43.809Z,86.10
2017-07-03T00:47:12.020Z,85.90
2017-07-03T00:49:40.258Z,85.90
2017-07-03T00:52:09.241Z,85.80
2017-07-03T00:54:37.448Z,85.70
2017-07-03T00:57:05.658Z,85.70
2017-07-03T00:59:34.055Z,85.30
2017-07-03T01:02:02.258Z,85.50
2017-07-03T01:04:31.233Z,85.70
2017-07-03T01:06:59.446Z,85.70
2017-07-03T01:09:27.664Z,86.50
2017-07-03T01:11:55.855Z,85.60
2017-07-03T01:14:24.068Z,85.50
2017-07-03T01:16:52.285Z,85.20
2017-07-03T01:19:20.490Z,85.00
2017-07-03T01:21:49.514Z,84.90
2017-07-03T01:24:17.774Z,84.90
2017-07-03T01:26:46.875Z,85.10
2017-07-03T01:29:15.165Z,84.90
2017-07-03T01:31:43.375Z,85.40
2017-07-03T01:34:11.603Z,84.90
2017-07-03T01:36:39.800Z,84.80
2017-07-03T01:39:08.059Z,84.90
2017-07-03T01:41:37.162Z,85.60
2017-07-03T01:44:06.127Z,85.60
2017-07-03T01:46:34.330Z,85.60
2017-07-03T01:49:02.550Z,85.60
2017-07-03T01:51:30.761Z,85.60
2017-07-03T01:53:58.988Z,85.50
2017-07-03T01:56:27.195Z,85.30
2017-07-03T01:58:55.497Z,85.50
2017-07-03T02:01:23.995Z,85.30
2017-07-03T02:03:52.979Z,85.10
2017-07-03T02:06:21.194Z,85.10
2017-07-03T02:08:49.391Z,85.10
2017-07-03T02:11:17.601Z,85.30
2017-07-03T02:13:45.808Z,85.40
2017-07-03T02:16:14.029Z,85.40
2017-07-03T02:18:42.244Z,85.80
2017-07-03T02:21:10.452Z,85.80
2017-07-03T02:23:38.723Z,86.10
2017-07-03T02:26:06.970Z,86.20
2017-07-03T02:28:36.073Z,86.10
2017-07-03T02:31:04.273Z,86.10
2017-07-03T02:33:32.518Z,86.00
2017-07-03T02:36:00.726Z,86.10
2017-07-03T02:38:28.934Z,86.20
2017-07-03T02:40:57.153Z,86.60
2017-07-03T02:43:25.347Z,87.00
2017-07-03T02:45:53.557Z,87.30
2017-07-03T02:48:21.761Z,87.30
2017-07-03T02:50:49.978Z,87.00
2017-07-03T02:53:18.249Z,87.10
2017-07-03T02:55:46.450Z,86.90
2017-07-03T02:58:14.666Z,86.70
2017-07-03T03:00:43.070Z,86.60
2017-07-03T03:03:11.378Z,86.50
2017-07-03T03:05:39.633Z,86.70
2017-07-03T03:08:07.906Z,86.50
2017-07-03T03:10:36.119Z,86.40
2017-07-03T03:13:04.748Z,86.40
2017-07-03T03:15:32.969Z,86.30
2017-07-03T03:18:01.222Z,86.00
2017-07-03T03:20:29.438Z,85.90
2017-07-03T03:22:57.770Z,85.20
2017-07-03T03:25:25.969Z,85.20
2017-07-03T03:27:54.167Z,85.20
2017-07-03T03:30:22.599Z,85.20
2017-07-03T03:32:51.583Z,85.40
2017-07-03T03:35:19.780Z,85.40
2017-07-03T03:37:47.996Z,85.60
2017-07-03T03:40:16.191Z,85.90
2017-07-03T03:42:44.396Z,86.30
2017-07-03T03:45:12.889Z,86.10
2017-07-03T03:47:41.850Z,86.20
2017-07-03T03:50:10.266Z,86.10
2017-07-03T03:52:38.525Z,85.90
2017-07-03T03:55:07.668Z,85.80
2017-07-03T03:57:36.113Z,85.70
2017-07-03T04:00:05.077Z,85.40
2017-07-03T04:02:33.301Z,85.40
2017-07-03T04:05:01.578Z,85.50
2017-07-03T04:07:29.864Z,85.80
2017-07-03T04:09:58.063Z,85.30
2017-07-03T04:12:26.268Z,85.20
2017-07-03T04:14:54.502Z,85.00
2017-07-03T04:17:22.710Z,84.60
2017-07-03T04:19:51.035Z,84.20
2017-07-03T04:22:19.229Z,83.90
2017-07-03T04:24:47.430Z,84.50
2017-07-03T04:27:15.683Z,85.30
2017-07-03T04:29:43.908Z,85.40
2017-07-03T04:32:12.120Z,85.70
2017-07-03T04:34:40.321Z,85.40
2017-07-03T04:37:08.540Z,84.70
2017-07-03T04:39:37.532Z,84.70
2017-07-03T04:42:05.710Z,84.60
2017-07-03T04:44:34.813Z,84.00
2017-07-03T04:47:03.780Z,84.00
2017-07-03T04:49:31.985Z,84.00
2017-07-03T04:52:00.966Z,83.90
2017-07-03T04:54:29.168Z,83.90
2017-07-03T04:56:57.388Z,84.40
2017-07-03T04:59:25.591Z,83.80
2017-07-03T05:01:53.797Z,83.60
2017-07-03T05:04:22.006Z,82.70
2017-07-03T05:09:24.743Z,82.70
2017-07-03T05:11:52.943Z,82.40
2017-07-03T05:14:21.134Z,82.20
2017-07-03T05:16:49.343Z,81.20
2017-07-03T05:19:17.661Z,81.20
2017-07-03T05:21:46.693Z,80.50
2017-07-03T05:24:14.890Z,80.50
2017-07-03T05:26:43.085Z,78.10
2017-07-03T05:29:11.313Z,71.40
2017-07-03T05:31:39.518Z,68.40
2017-07-03T05:34:07.757Z,64.70
2017-07-03T05:36:36.230Z,62.50
2017-07-03T05:39:05.322Z,60.20
2017-07-03T05:41:34.309Z,59.90
2017-07-03T05:44:08.239Z,59.90
2017-07-03T05:46:36.459Z,62.80
2017-07-03T05:49:04.675Z,57.70
2017-07-03T05:51:32.888Z,54.80
2017-07-03T05:54:01.097Z,53.90
2017-07-03T05:56:29.313Z,51.80
2017-07-03T05:58:57.522Z,51.10
2017-07-03T06:01:25.765Z,51.10
2017-07-03T06:03:53.976Z,50.90
2017-07-03T06:06:22.174Z,48.30
2017-07-03T06:08:50.389Z,48.80
2017-07-03T06:11:18.594Z,50.50
2017-07-03T06:13:46.813Z,51.30
2017-07-03T06:16:15.028Z,52.90
2017-07-03T06:18:43.323Z,52.00
2017-07-03T06:21:11.534Z,52.30
2017-07-03T06:23:39.735Z,52.70
2017-07-03T06:26:07.967Z,52.40
2017-07-03T06:28:36.174Z,52.50
2017-07-03T06:31:04.370Z,51.20
2017-07-03T06:33:32.573Z,51.80
2017-07-03T06:36:00.806Z,53.30
2017-07-03T06:38:29.025Z,53.50
2017-07-03T06:40:57.218Z,54.40
2017-07-03T06:43:25.454Z,54.20
2017-07-03T06:45:53.676Z,54.20
2017-07-03T06:48:21.889Z,54.70
2017-07-03T06:50:50.108Z,54.60
2017-07-03T06:53:18.349Z,54.80
2017-07-03T06:55:47.343Z,56.20
2017-07-03T06:58:15.542Z,56.20
2017-07-03T07:00:43.779Z,56.00
2017-07-03T07:03:12.093Z,56.40
2017-07-03T07:05:40.294Z,55.60
2017-07-03T07:08:08.514Z,55.90
2017-07-03T07:10:36.733Z,55.20
2017-07-03T07:13:04.988Z,55.50
2017-07-03T07:15:34.082Z,51.90
2017-07-03T07:18:03.067Z,49.80
2017-07-03T07:20:31.457Z,49.80
2017-07-03T07:23:00.430Z,47.40
2017-07-03T07:25:28.715Z,47.30
2017-07-03T07:27:56.890Z,47.40
2017-07-03T07:30:25.869Z,46.40
2017-07-03T07:32:54.062Z,46.40
2017-07-03T07:35:23.051Z,39.30
2017-07-03T07:37:51.264Z,39.30
2017-07-03T07:40:19.487Z,38.90
2017-07-03T07:42:47.699Z,39.50
2017-07-03T07:45:15.899Z,41.00
2017-07-03T07:47:44.355Z,41.10
2017-07-03T07:50:12.617Z,43.30
2017-07-03T07:52:41.626Z,45.30
2017-07-03T07:55:09.842Z,45.40
2017-07-03T07:57:38.039Z,44.90
2017-07-03T08:00:06.243Z,42.90
2017-07-03T08:02:34.458Z,42.20
2017-07-03T08:05:02.693Z,43.10
2017-07-03T08:07:31.683Z,36.00
2017-07-03T08:09:59.884Z,35.90
2017-07-03T08:12:28.168Z,33.80
2017-07-03T08:14:56.442Z,34.00
2017-07-03T08:17:24.702Z,31.20
2017-07-03T08:19:53.711Z,27.70
2017-07-03T08:22:21.913Z,27.70
2017-07-03T08:24:50.122Z,26.90
2017-07-03T08:27:18.331Z,26.50
2017-07-03T08:29:46.533Z,26.70
2017-07-03T08:32:14.989Z,29.00
2017-07-03T08:34:43.186Z,26.50
2017-07-03T08:37:11.410Z,28.30
2017-07-03T08:39:39.601Z,27.30
2017-07-03T08:42:07.898Z,25.70
2017-07-03T08:44:36.878Z,29.00
2017-07-03T08:47:05.078Z,29.10
2017-07-03T08:49:33.306Z,26.40
2017-07-03T08:52:01.506Z,23.90
2017-07-03T08:54:29.717Z,25.20
2017-07-03T08:56:57.991Z,26.20
2017-07-03T08:59:26.207Z,26.10
2017-07-03T09:01:54.402Z,27.00
2017-07-03T09:04:22.600Z,26.40
2017-07-03T09:06:50.820Z,25.60
2017-07-03T09:09:19.028Z,26.30
2017-07-03T09:11:47.244Z,27.10
2017-07-03T09:14:15.482Z,27.10
2017-07-03T09:16:43.799Z,27.30
2017-07-03T09:19:12.022Z,26.70
2017-07-03T09:21:40.220Z,27.20
2017-07-03T09:24:08.446Z,27.80
2017-07-03T09:26:36.686Z,27.50
2017-07-03T09:29:04.919Z,26.70
2017-07-03T09:31:33.118Z,27.80
2017-07-03T09:34:01.338Z,26.50
2017-07-03T09:36:29.541Z,26.50
2017-07-03T09:38:57.821Z,27.00
2017-07-03T09:41:26.848Z,25.80
2017-07-03T09:43:55.074Z,25.80
2017-07-03T09:46:23.586Z,26.70
2017-07-03T09:48:52.559Z,28.10
2017-07-03T09:51:20.962Z,28.10
2017-07-03T09:53:49.982Z,28.10
2017-07-03T09:56:18.189Z,28.00
2017-07-03T09:58:46.409Z,27.60
2017-07-03T10:01:14.646Z,27.80
2017-07-03T10:03:42.834Z,27.60
2017-07-03T10:06:11.037Z,27.60
2017-07-03T10:08:39.258Z,27.70
2017-07-03T10:11:07.517Z,28.20
2017-07-03T10:13:35.826Z,27.70
2017-07-03T10:16:04.031Z,27.90
2017-07-03T10:18:32.259Z,26.00
2017-07-03T10:21:00.838Z,27.30
2017-07-03T10:23:29.490Z,29.20
2017-07-03T10:25:57.697Z,32.30
2017-07-03T10:28:26.098Z,33.30
2017-07-03T10:30:54.320Z,35.70
2017-07-03T10:33:22.539Z,40.00
2017-07-03T10:35:50.783Z,35.80
2017-07-03T10:38:18.998Z,31.30
2017-07-03T10:40:47.962Z,26.40
2017-07-03T10:43:16.204Z,26.40
2017-07-03T10:45:44.461Z,28.40
2017-07-03T10:48:12.691Z,26.60
2017-07-03T10:50:41.039Z,27.70
2017-07-03T10:53:10.179Z,28.00
2017-07-03T10:55:38.394Z,28.00
2017-07-03T10:58:06.614Z,29.20
2017-07-03T11:00:34.819Z,32.80
2017-07-03T11:03:03.146Z,33.30
2017-07-03T11:05:31.377Z,34.50
2017-07-03T11:07:59.585Z,36.30
2017-07-03T11:10:27.829Z,37.90
2017-07-03T11:12:56.024Z,38.30
2017-07-03T11:15:24.246Z,39.80
2017-07-03T11:17:52.553Z,34.20
2017-07-03T11:20:20.756Z,34.60
2017-07-03T11:22:49.099Z,35.50
2017-07-03T11:25:17.308Z,36.20
2017-07-03T11:27:45.637Z,38.40
2017-07-03T11:30:14.073Z,39.50
2017-07-03T11:32:42.303Z,35.60
2017-07-03T11:35:10.503Z,35.70
2017-07-03T11:37:38.703Z,39.70
2017-07-03T11:40:06.906Z,36.10
2017-07-03T11:42:35.122Z,37.60
2017-07-03T11:45:03.950Z,38.70
2017-07-03T11:47:32.174Z,35.10
2017-07-03T11:50:00.396Z,36.70
2017-07-03T11:52:28.611Z,39.30
2017-07-03T11:54:56.818Z,36.00
2017-07-03T11:57:25.030Z,35.20
2017-07-03T11:59:53.382Z,36.00
2017-07-03T12:02:21.728Z,34.60
2017-07-03T12:04:49.950Z,35.50
2017-07-03T12:07:18.201Z,34.60
2017-07-03T12:09:46.398Z,36.00
2017-07-03T12:12:14.828Z,34.60
2017-07-03T12:14:44.955Z,35.20
2017-07-03T12:17:17.482Z,36.70
2017-07-03T12:19:45.695Z,36.40
2017-07-03T12:22:14.673Z,36.30
2017-07-03T12:24:42.881Z,36.30
2017-07-03T12:27:11.144Z,35.30
2017-07-03T12:29:40.132Z,33.40
2017-07-03T12:32:08.395Z,33.40
2017-07-03T12:34:36.574Z,33.60
2017-07-03T12:37:04.874Z,32.90
2017-07-03T12:39:33.073Z,32.80
2017-07-03T12:42:01.627Z,32.60
2017-07-03T12:44:30.596Z,35.00
2017-07-03T12:46:58.792Z,34.90
2017-07-03T12:49:27.007Z,33.30
2017-07-03T12:51:55.209Z,34.10
2017-07-03T12:54:23.527Z,34.30
2017-07-03T12:56:51.740Z,32.80
2017-07-03T12:59:20.737Z,31.30
2017-07-03T13:01:49.008Z,31.00
2017-07-03T13:04:17.182Z,32.60
2017-07-03T13:06:45.502Z,31.20
2017-07-03T13:09:13.839Z,31.90
2017-07-03T13:11:42.028Z,33.30
2017-07-03T13:14:10.338Z,34.50
2017-07-03T13:16:38.618Z,34.00
2017-07-03T13:19:06.844Z,34.00
2017-07-03T13:21:35.050Z,33.60
2017-07-03T13:24:03.260Z,33.20
2017-07-03T13:26:31.479Z,35.00
2017-07-03T13:28:59.708Z,36.80
2017-07-03T13:31:27.903Z,33.50
2017-07-03T13:33:56.222Z,33.20
2017-07-03T13:36:24.440Z,33.50
2017-07-03T13:38:52.637Z,34.30
2017-07-03T13:41:20.845Z,33.80
2017-07-03T13:43:49.047Z,34.10
2017-07-03T13:46:17.317Z,35.30
2017-07-03T13:48:45.646Z,38.10
2017-07-03T13:51:13.862Z,34.70
2017-07-03T13:53:42.079Z,35.10
2017-07-03T13:56:10.290Z,34.60
2017-07-03T13:58:38.507Z,34.00
2017-07-03T14:01:06.806Z,34.50
2017-07-03T14:03:35.022Z,35.40
2017-07-03T14:06:04.010Z,33.40
2017-07-03T14:08:32.212Z,33.30
2017-07-03T14:11:01.222Z,34.80
2017-07-03T14:13:29.382Z,34.10
2017-07-03T14:15:57.787Z,33.60
2017-07-03T14:18:26.006Z,32.40
2017-07-03T14:20:54.222Z,33.70
2017-07-03T14:23:23.331Z,32.30
2017-07-03T14:25:52.312Z,32.00
2017-07-03T14:28:20.514Z,31.90
2017-07-03T14:30:48.766Z,32.20
2017-07-03T14:33:17.743Z,32.50
2017-07-03T14:35:45.948Z,32.50
2017-07-03T14:38:14.976Z,32.60
2017-07-03T14:40:43.224Z,32.60
2017-07-03T14:43:11.607Z,32.10
2017-07-03T14:45:39.809Z,32.10
2017-07-03T14:48:08.384Z,32.60
2017-07-03T14:50:36.585Z,34.60
2017-07-03T14:53:04.793Z,32.20
2017-07-03T14:55:33.021Z,34.50
2017-07-03T14:58:01.227Z,31.90
2017-07-03T15:00:29.429Z,31.90
2017-07-03T15:02:57.630Z,32.40
2017-07-03T15:05:25.847Z,31.40
2017-07-03T15:07:54.198Z,31.60
2017-07-03T15:10:22.398Z,32.90
2017-07-03T15:12:50.616Z,31.40
2017-07-03T15:15:18.816Z,33.90
2017-07-03T15:17:47.077Z,34.20
2017-07-03T15:20:15.292Z,32.10
2017-07-03T15:22:43.748Z,33.80
2017-07-03T15:25:11.948Z,32.70
2017-07-03T15:27:40.145Z,32.20
2017-07-03T15:30:08.350Z,32.90
2017-07-03T15:32:36.547Z,31.80
2017-07-03T15:35:04.757Z,33.20
2017-07-03T15:37:32.984Z,33.00
2017-07-03T15:40:01.361Z,31.20
2017-07-03T15:42:30.328Z,33.70
2017-07-03T15:44:58.543Z,33.80
2017-07-03T15:47:26.813Z,30.60
2017-07-03T15:49:55.952Z,31.40
2017-07-03T15:52:24.905Z,32.30
2017-07-03T15:54:53.099Z,32.30
2017-07-03T15:57:21.377Z,32.40
2017-07-03T15:59:49.606Z,32.00
2017-07-03T16:02:17.814Z,31.90
2017-07-03T16:04:46.033Z,33.10
2017-07-03T16:07:14.276Z,33.90
2017-07-03T16:09:42.473Z,34.20
2017-07-03T16:12:10.818Z,33.40
2017-07-03T16:14:39.792Z,33.80
2017-07-03T16:17:07.986Z,33.70
2017-07-03T16:19:36.980Z,36.70
2017-07-03T16:22:05.208Z,36.60
2017-07-03T16:24:33.403Z,33.50
2017-07-03T16:27:01.618Z,33.70
2017-07-03T16:29:29.818Z,33.40
2017-07-03T16:31:58.062Z,33.40
2017-07-03T16:34:27.022Z,32.40
2017-07-03T16:36:55.240Z,32.30
2017-07-03T16:39:23.461Z,33.50
2017-07-03T16:41:51.658Z,33.90
2017-07-03T16:44:19.883Z,33.50
2017-07-03T16:46:48.077Z,34.00
2017-07-03T16:49:16.405Z,34.30
2017-07-03T16:51:44.711Z,35.20
2017-07-03T16:54:12.906Z,35.20
2017-07-03T16:56:41.243Z,36.00
2017-07-03T16:59:10.223Z,36.60
2017-07-03T17:01:38.455Z,36.60
2017-07-03T17:04:06.646Z,36.50
2017-07-03T17:06:34.867Z,37.10
2017-07-03T17:09:03.064Z,37.20
2017-07-03T17:11:31.270Z,37.70
2017-07-03T17:13:59.478Z,38.10
2017-07-03T17:16:27.674Z,38.80
2017-07-03T17:18:56.878Z,39.10
2017-07-03T17:21:25.079Z,39.10
2017-07-03T17:23:53.344Z,39.00
2017-07-03T17:26:21.601Z,40.10
2017-07-03T17:28:50.571Z,38.50
2017-07-03T17:31:18.892Z,38.40
2017-07-03T17:33:47.090Z,39.10
2017-07-03T17:36:15.309Z,39.40
2017-07-03T17:38:43.523Z,39.40
2017-07-03T17:41:11.722Z,39.50
2017-07-03T17:43:40.173Z,39.60
2017-07-03T17:46:08.435Z,40.20
2017-07-03T17:48:37.422Z,40.50
2017-07-03T17:51:05.662Z,40.40
2017-07-03T17:53:33.877Z,41.00
2017-07-03T17:56:02.864Z,39.50
2017-07-03T17:58:31.063Z,39.40
2017-07-03T18:00:59.265Z,39.50
2017-07-03T18:03:27.487Z,39.80
2017-07-03T18:05:55.686Z,38.90
2017-07-03T18:08:24.866Z,38.70
2017-07-03T18:10:53.098Z,38.60
2017-07-03T18:13:21.323Z,39.40
2017-07-03T18:15:50.310Z,40.30
2017-07-03T18:18:18.532Z,39.60
2017-07-03T18:20:46.734Z,39.40
2017-07-03T18:23:15.065Z,38.80
2017-07-03T18:25:43.336Z,39.50
2017-07-03T18:28:12.558Z,40.10
2017-07-03T18:30:40.956Z,40.10
2017-07-03T18:33:09.163Z,39.60
2017-07-03T18:35:37.472Z,39.40
2017-07-03T18:38:06.450Z,40.10
2017-07-03T18:40:34.655Z,40.00
2017-07-03T18:43:02.913Z,40.00
2017-07-03T18:45:31.892Z,44.90
2017-07-03T18:48:00.099Z,45.00
2017-07-03T18:50:28.656Z,45.40
2017-07-03T18:52:56.829Z,47.90
2017-07-03T18:55:25.034Z,48.40
2017-07-03T18:57:53.236Z,48.50
2017-07-03T19:00:21.493Z,48.80
2017-07-03T19:02:49.703Z,51.10
2017-07-03T19:05:17.907Z,51.60
2017-07-03T19:07:46.119Z,52.00
2017-07-03T19:10:14.319Z,53.60
2017-07-03T19:12:42.527Z,54.50
2017-07-03T19:15:10.934Z,54.30
2017-07-03T19:17:39.929Z,55.30
2017-07-03T19:20:08.111Z,55.30
2017-07-03T19:22:36.346Z,56.70
2017-07-03T19:25:04.545Z,57.10
2017-07-03T19:27:32.742Z,58.20
2017-07-03T19:30:00.980Z,58.90
2017-07-03T19:32:29.166Z,59.30
2017-07-03T19:34:57.378Z,59.30
2017-07-03T19:37:25.606Z,59.90
2017-07-03T19:39:53.824Z,60.00
2017-07-03T19:42:22.939Z,60.10
2017-07-03T19:44:51.143Z,60.40
2017-07-03T19:47:20.548Z,60.60
2017-07-03T19:49:49.565Z,61.00
2017-07-03T19:52:17.775Z,61.80
2017-07-03T19:54:45.985Z,61.60
2017-07-03T19:57:14.194Z,62.30
2017-07-03T19:59:42.420Z,62.50
2017-07-03T20:02:10.615Z,62.50
2017-07-03T20:04:38.821Z,63.20
2017-07-03T20:07:07.066Z,63.90
2017-07-03T20:09:35.269Z,63.70
2017-07-03T20:12:03.499Z,63.70
2017-07-03T20:14:31.714Z,64.00
2017-07-03T20:16:59.966Z,64.50
2017-07-03T20:19:28.198Z,64.00
2017-07-03T20:21:57.184Z,65.40
2017-07-03T20:24:25.394Z,65.30
2017-07-03T20:26:53.606Z,65.50
2017-07-03T20:29:21.827Z,65.70
2017-07-03T20:31:50.048Z,66.60
2017-07-03T20:34:18.268Z,67.30
2017-07-03T20:36:47.233Z,67.50
2017-07-03T20:39:15.442Z,67.50
2017-07-03T20:41:44.429Z,68.40
2017-07-03T20:44:12.649Z,68.40
2017-07-03T20:46:40.894Z,69.10
2017-07-03T20:49:09.174Z,69.30
2017-07-03T20:51:37.457Z,69.80
2017-07-03T20:54:05.674Z,69.90
2017-07-03T20:56:33.871Z,70.10
2017-07-03T20:59:02.090Z,70.50
2017-07-03T21:01:30.302Z,70.60
2017-07-03T21:03:58.516Z,70.80
2017-07-03T21:06:26.720Z,70.60
2017-07-03T21:08:55.008Z,70.90
2017-07-03T21:11:23.243Z,70.60
2017-07-03T21:13:52.225Z,71.30
2017-07-03T21:16:20.429Z,71.20
2017-07-03T21:18:48.650Z,71.70
2017-07-03T21:21:16.878Z,71.80
2017-07-03T21:23:45.083Z,72.10
2017-07-03T21:26:13.340Z,72.30
2017-07-03T21:28:42.314Z,72.90
2017-07-03T21:31:10.709Z,72.70
2017-07-03T21:33:38.915Z,72.70
2017-07-03T21:36:07.350Z,72.90
2017-07-03T21:38:35.506Z,73.00
2017-07-03T21:41:03.891Z,73.10
2017-07-03T21:43:32.113Z,73.10
2017-07-03T21:46:00.406Z,73.10
2017-07-03T21:48:28.622Z,73.20
2017-07-03T21:50:56.832Z,73.30
2017-07-03T21:53:25.040Z,73.30
2017-07-03T21:55:53.496Z,72.90
2017-07-03T21:58:21.738Z,72.40
2017-07-03T22:00:49.957Z,72.20
2017-07-03T22:03:18.198Z,72.50
2017-07-03T22:05:46.412Z,73.00
2017-07-03T22:08:14.627Z,72.90
2017-07-03T22:10:42.949Z,73.70
2017-07-03T22:13:11.149Z,73.90
2017-07-03T22:15:39.495Z,74.00
2017-07-03T22:18:08.469Z,73.90
2017-07-03T22:20:36.666Z,73.80
2017-07-03T22:23:04.964Z,73.60
2017-07-03T22:25:33.170Z,73.20
2017-07-03T22:28:01.388Z,72.70
2017-07-03T22:30:29.595Z,72.90
2017-07-03T22:32:57.860Z,72.80
2017-07-03T22:35:26.133Z,72.50
2017-07-03T22:37:54.422Z,72.00
2017-07-03T22:40:22.628Z,71.50
2017-07-03T22:42:50.929Z,70.00
2017-07-03T22:45:19.139Z,70.50
2017-07-03T22:47:47.349Z,71.30
2017-07-03T22:50:15.571Z,71.30
2017-07-03T22:52:43.871Z,71.10
2017-07-03T22:55:12.957Z,70.50
2017-07-03T22:57:41.256Z,70.50
2017-07-03T23:00:09.457Z,71.00
2017-07-03T23:02:37.658Z,70.60
2017-07-03T23:05:06.077Z,70.30
2017-07-03T23:07:34.378Z,70.00
2017-07-03T23:10:02.654Z,69.90
2017-07-03T23:12:30.844Z,69.50
2017-07-03T23:14:59.047Z,70.20
2017-07-03T23:17:27.251Z,69.60
2017-07-03T23:19:56.441Z,70.10
2017-07-03T23:22:24.631Z,70.10
2017-07-03T23:24:53.609Z,70.20
2017-07-03T23:27:21.803Z,70.20
2017-07-03T23:29:50.099Z,70.10
2017-07-03T23:32:18.324Z,69.90
2017-07-03T23:34:46.929Z,70.40
2017-07-03T23:37:15.099Z,70.90
2017-07-03T23:39:43.477Z,70.80
2017-07-03T23:42:11.689Z,71.00
2017-07-03T23:44:39.905Z,70.50
2017-07-03T23:47:08.110Z,70.50
2017-07-03T23:49:36.315Z,70.60
2017-07-03T23:52:04.527Z,70.60
2017-07-03T23:54:32.743Z,70.10
2017-07-03T23:57:00.943Z,70.60
2017-07-03T23:59:29.148Z,70.50
